Terminal Aerodrome Forecast
Issued by NWS

Home | Current Version | Previous Version | Text Only | Print | Product List | Glossary On
Versions: 1 2 3 4 5 6 7 8 9 10 11 12 13 14 15 16 17 18 19 20 21 22 23 24 25 26
000
FTUS41 KRNK 312332
TAFBCB
TAF
KBCB 312332Z 0100/0124 08003KT P6SM BKN080
     FM010300 00000KT P6SM SCT060
     FM010900 00000KT 2SM BR SCT004
      TEMPO 0109/0111 1/2SM FG BKN001
     FM011300 00000KT P6SM SCT060
     FM011700 08004KT P6SM BKN050=

USA.gov is the U.S. government's official web portal to all federal, state and local government web resources and services.